createdAt,value
2022-08-19T00:04:56.817Z,100258.44
2022-08-19T00:07:23.358Z,100261.06
2022-08-19T00:09:50.759Z,100257.13
2022-08-19T00:12:19.150Z,100248.81
2022-08-19T00:14:46.530Z,100250.81
2022-08-19T00:19:58.057Z,100254.25
2022-08-19T00:22:24.570Z,100257.06
2022-08-19T00:24:51.154Z,100252.69
2022-08-19T00:27:25.960Z,100258.41
2022-08-19T00:29:54.288Z,100264.97
2022-08-19T00:35:04.655Z,100267.25
2022-08-19T00:37:32.063Z,100262.09
2022-08-19T00:39:58.591Z,100263.75
2022-08-19T00:42:26.072Z,100263.63
2022-08-19T00:44:53.485Z,100257.00
2022-08-19T00:50:14.735Z,100264.28
2022-08-19T00:52:42.148Z,100261.94
2022-08-19T00:55:08.661Z,100262.72
2022-08-19T00:57:35.165Z,100260.00
2022-08-19T01:00:03.244Z,100253.06
2022-08-19T01:05:24.295Z,100259.66
2022-08-19T01:07:51.713Z,100260.09
2022-08-19T01:10:18.212Z,100273.47
2022-08-19T01:12:44.709Z,100269.88
2022-08-19T01:15:12.145Z,100267.69
2022-08-19T01:20:33.582Z,100272.25
2022-08-19T01:23:00.077Z,100274.69
2022-08-19T01:25:26.578Z,100265.19
2022-08-19T01:27:55.392Z,100272.06
2022-08-19T01:30:28.134Z,100269.88
2022-08-19T01:35:48.688Z,100266.91
2022-08-19T01:38:16.151Z,100275.59
2022-08-19T01:40:42.632Z,100267.63
2022-08-19T01:43:09.149Z,100266.91
2022-08-19T01:45:35.642Z,100266.81
2022-08-19T01:50:47.060Z,100259.41
2022-08-19T01:53:14.449Z,100255.91
2022-08-19T01:55:41.794Z,100252.06
2022-08-19T01:58:08.317Z,100252.31
2022-08-19T02:00:35.760Z,100256.31
2022-08-19T02:05:47.391Z,100262.63
2022-08-19T02:08:14.781Z,100261.66
2022-08-19T02:10:41.256Z,100257.03
2022-08-19T02:13:07.783Z,100256.69
2022-08-19T02:15:34.277Z,100257.38
2022-08-19T02:20:54.609Z,100255.25
2022-08-19T02:23:21.099Z,100251.25
2022-08-19T02:25:47.603Z,100249.59
2022-08-19T02:28:18.302Z,100252.38
2022-08-19T02:30:46.286Z,100248.13
2022-08-19T02:36:07.867Z,100243.19
2022-08-19T02:38:34.418Z,100234.88
2022-08-19T02:41:00.916Z,100242.69
2022-08-19T02:43:28.349Z,100239.50
2022-08-19T02:45:54.839Z,100247.81
2022-08-19T02:51:05.462Z,100252.84
2022-08-19T02:53:31.982Z,100257.03
2022-08-19T02:55:59.490Z,100259.72
2022-08-19T02:58:25.989Z,100251.50
2022-08-19T03:00:52.607Z,100242.78
2022-08-19T03:06:14.816Z,100247.81
2022-08-19T03:08:41.334Z,100237.53
2022-08-19T03:11:07.813Z,100248.81
2022-08-19T03:13:34.312Z,100250.97
2022-08-19T03:16:00.817Z,100252.75
2022-08-19T03:21:23.454Z,100241.66
2022-08-19T03:23:50.878Z,100234.63
2022-08-19T03:26:17.418Z,100233.47
2022-08-19T03:28:47.685Z,100236.44
2022-08-19T03:31:45.111Z,100240.81
2022-08-19T03:36:58.798Z,100255.63
2022-08-19T03:39:26.277Z,100248.88
2022-08-19T03:42:32.503Z,100248.97
2022-08-19T03:44:39.251Z,100255.16
2022-08-19T03:47:05.743Z,100255.41
2022-08-19T03:52:16.151Z,100263.44
2022-08-19T03:54:42.634Z,100267.41
2022-08-19T03:57:09.153Z,100267.53
2022-08-19T03:59:36.570Z,100264.06
2022-08-19T04:02:03.122Z,100268.19
2022-08-19T04:07:13.776Z,100267.75
2022-08-19T04:09:40.272Z,100267.00
2022-08-19T04:12:07.659Z,100263.88
2022-08-19T04:14:34.161Z,100262.09
2022-08-19T04:17:01.592Z,100267.97
2022-08-19T04:22:23.820Z,100258.88
2022-08-19T04:24:54.595Z,100256.59
2022-08-19T04:27:22.029Z,100253.19
2022-08-19T04:29:50.159Z,100257.97
2022-08-19T04:32:16.650Z,100261.06
2022-08-19T04:37:38.135Z,100271.91
2022-08-19T04:40:05.694Z,100269.38
2022-08-19T04:42:32.230Z,100273.47
2022-08-19T04:45:00.429Z,100270.16
2022-08-19T04:47:47.725Z,100256.16
2022-08-19T04:52:59.384Z,100248.22
2022-08-19T04:55:25.886Z,100249.53
2022-08-19T04:57:53.304Z,100251.16
2022-08-19T05:00:20.719Z,100262.28
2022-08-19T05:02:47.271Z,100254.47
2022-08-19T05:07:58.794Z,100258.19
2022-08-19T05:10:25.270Z,100252.41
2022-08-19T05:12:51.860Z,100247.34
2022-08-19T05:15:19.305Z,100253.97
2022-08-19T05:17:45.798Z,100253.34
2022-08-19T05:23:13.061Z,100256.78
2022-08-19T05:25:49.685Z,100261.50
2022-08-19T05:28:17.123Z,100275.22
2022-08-19T05:30:47.613Z,100270.00
2022-08-19T05:33:15.161Z,100262.72
2022-08-19T05:38:35.767Z,100266.63
2022-08-19T05:41:02.261Z,100272.88
2022-08-19T05:43:28.755Z,100287.03
2022-08-19T05:45:55.248Z,100292.47
2022-08-19T05:48:22.690Z,100286.50
2022-08-19T05:53:44.114Z,100288.25
2022-08-19T05:56:10.606Z,100290.59
2022-08-19T05:58:37.998Z,100288.50
2022-08-19T06:01:05.462Z,100283.22
2022-08-19T06:03:32.868Z,100274.28
2022-08-19T06:08:55.104Z,100270.94
2022-08-19T06:11:22.553Z,100271.97
2022-08-19T06:13:49.041Z,100262.34
2022-08-19T06:16:16.450Z,100256.63
2022-08-19T06:18:43.862Z,100259.44
2022-08-19T06:23:56.285Z,100270.88
2022-08-19T06:26:23.692Z,100280.44
2022-08-19T06:28:51.117Z,100285.59
2022-08-19T06:31:18.543Z,100277.53
2022-08-19T06:33:45.024Z,100281.88
2022-08-19T06:38:56.610Z,100288.97
2022-08-19T06:41:23.075Z,100287.78
2022-08-19T06:43:50.476Z,100284.53
2022-08-19T06:46:21.677Z,100279.25
2022-08-19T06:48:49.440Z,100282.41
2022-08-19T06:54:01.772Z,100282.72
2022-08-19T06:56:29.930Z,100280.72
2022-08-19T06:58:56.426Z,100273.44
2022-08-19T07:01:24.029Z,100281.41
2022-08-19T07:03:51.586Z,100270.19
2022-08-19T07:09:03.022Z,100275.69
2022-08-19T07:11:30.703Z,100279.28
2022-08-19T07:13:57.561Z,100280.88
2022-08-19T07:16:29.421Z,100293.97
2022-08-19T07:18:56.194Z,100294.78
2022-08-19T07:24:07.783Z,100288.50
2022-08-19T07:26:34.263Z,100292.09
2022-08-19T07:29:01.701Z,100290.06
2022-08-19T07:31:29.143Z,100275.59
2022-08-19T07:33:57.726Z,100271.91
2022-08-19T07:39:09.356Z,100273.38
2022-08-19T07:41:35.827Z,100267.31
2022-08-19T07:44:02.353Z,100266.41
2022-08-19T07:46:29.753Z,100275.63
2022-08-19T07:48:56.237Z,100275.94
2022-08-19T07:54:17.077Z,100281.47
2022-08-19T07:56:44.499Z,100281.00
2022-08-19T07:59:10.985Z,100278.97
2022-08-19T08:01:41.758Z,100277.41
2022-08-19T08:04:09.510Z,100278.19
2022-08-19T08:09:29.828Z,100268.09
2022-08-19T08:11:57.717Z,100267.63
2022-08-19T08:14:34.925Z,100264.06
2022-08-19T08:17:01.634Z,100263.72
2022-08-19T08:19:28.984Z,100274.16
2022-08-19T08:24:50.976Z,100268.53
2022-08-19T08:27:18.391Z,100275.72
2022-08-19T08:29:44.825Z,100274.84
2022-08-19T08:32:14.214Z,100288.44
2022-08-19T08:34:42.276Z,100275.63
2022-08-19T08:39:53.674Z,100281.13
2022-08-19T08:42:20.151Z,100281.91
2022-08-19T08:44:47.571Z,100277.09
2022-08-19T08:47:14.023Z,100271.03
2022-08-19T08:49:41.072Z,100276.63
2022-08-19T08:54:56.083Z,100272.13
2022-08-19T08:57:22.533Z,100282.13
2022-08-19T08:59:49.831Z,100290.56
2022-08-19T09:02:16.271Z,100302.56
2022-08-19T09:04:43.544Z,100293.28
2022-08-19T09:10:05.692Z,100288.88
2022-08-19T09:12:32.761Z,100289.22
2022-08-19T09:15:00.032Z,100298.44
2022-08-19T09:17:27.274Z,100291.59
2022-08-19T09:19:53.752Z,100299.56
2022-08-19T09:25:14.218Z,100292.72
2022-08-19T09:27:42.919Z,100298.34
2022-08-19T09:30:09.990Z,100304.28
2022-08-19T09:32:36.434Z,100300.22
2022-08-19T09:35:03.609Z,100295.84
2022-08-19T09:40:37.734Z,100288.88
2022-08-19T09:43:10.033Z,100302.25
2022-08-19T09:45:39.914Z,100299.41
2022-08-19T09:48:06.368Z,100304.88
2022-08-19T09:50:33.250Z,100308.97
2022-08-19T09:55:54.988Z,100300.59
2022-08-19T09:58:26.025Z,100293.28
2022-08-19T10:00:53.866Z,100294.06
2022-08-19T10:03:21.178Z,100300.69
2022-08-19T10:05:54.659Z,100295.78
2022-08-19T10:08:21.690Z,100284.72
2022-08-19T10:10:53.656Z,100288.66
2022-08-19T10:13:23.587Z,100282.41
2022-08-19T10:15:50.090Z,100284.72
2022-08-19T10:18:16.538Z,100286.75
2022-08-19T10:20:43.717Z,100269.56
2022-08-19T10:25:54.675Z,100277.09
2022-08-19T10:28:21.092Z,100276.31
2022-08-19T10:30:51.439Z,100271.44
2022-08-19T10:33:27.079Z,100261.47
2022-08-19T10:36:04.236Z,100267.75
2022-08-19T10:41:16.286Z,100265.19
2022-08-19T10:43:43.504Z,100268.56
2022-08-19T10:46:14.233Z,100266.97
2022-08-19T10:48:44.123Z,100270.56
2022-08-19T10:51:11.364Z,100277.31
2022-08-19T10:56:33.949Z,100269.00
2022-08-19T10:59:00.303Z,100267.41
2022-08-19T11:01:26.734Z,100266.91
2022-08-19T11:03:55.006Z,100267.03
2022-08-19T11:06:21.455Z,100265.13
2022-08-19T11:11:33.546Z,100252.91
2022-08-19T11:14:05.691Z,100255.72
2022-08-19T11:16:32.927Z,100252.91
2022-08-19T11:18:59.319Z,100237.09
2022-08-19T11:21:28.470Z,100234.84
2022-08-19T11:26:48.335Z,100226.78
2022-08-19T11:29:15.586Z,100232.41
2022-08-19T11:31:41.947Z,100233.63
2022-08-19T11:34:08.350Z,100225.97
2022-08-19T11:36:34.760Z,100227.56
2022-08-19T11:41:56.988Z,100223.16
2022-08-19T11:44:24.257Z,100219.66
2022-08-19T11:46:52.528Z,100215.28
2022-08-19T11:49:18.968Z,100217.41
2022-08-19T11:51:45.453Z,100218.50
2022-08-19T11:57:07.019Z,100207.06
2022-08-19T11:59:33.512Z,100196.28
2022-08-19T12:01:59.999Z,100197.06
2022-08-19T12:04:26.471Z,100183.00
2022-08-19T12:06:52.941Z,100184.28
2022-08-19T12:12:14.056Z,100181.13
2022-08-19T12:14:41.530Z,100179.53
2022-08-19T12:17:08.006Z,100180.75
2022-08-19T12:19:35.440Z,100186.38
2022-08-19T12:22:02.867Z,100177.19
2022-08-19T12:27:14.226Z,100172.81
2022-08-19T12:30:01.584Z,100175.63
2022-08-19T12:32:29.007Z,100165.63
2022-08-19T12:34:56.394Z,100164.84
2022-08-19T12:37:22.871Z,100163.25
2022-08-19T12:42:33.218Z,100157.63
2022-08-19T12:44:59.655Z,100144.84
2022-08-19T12:47:27.058Z,100156.09
2022-08-19T12:49:55.688Z,100150.47
2022-08-19T12:52:23.801Z,100149.66
2022-08-19T12:57:45.414Z,100148.09
2022-08-19T13:00:12.834Z,100136.06
2022-08-19T13:02:39.414Z,100134.50
2022-08-19T13:05:06.821Z,100136.53
2022-08-19T13:07:34.206Z,100142.94
2022-08-19T13:12:55.715Z,100140.59
2022-08-19T13:15:23.970Z,100140.59
2022-08-19T13:17:51.597Z,100146.22
2022-08-19T13:20:18.073Z,100149.03
2022-08-19T13:22:44.551Z,100146.97
2022-08-19T13:28:05.960Z,100151.06
2022-08-19T13:30:33.406Z,100139.00
2022-08-19T13:33:00.884Z,100144.63
2022-08-19T13:35:27.330Z,100138.22
2022-08-19T13:37:54.875Z,100149.94
2022-08-19T13:43:17.573Z,100142.28
2022-08-19T13:45:51.974Z,100133.84
2022-08-19T13:48:19.434Z,100144.31
2022-08-19T13:50:46.770Z,100142.28
2022-08-19T13:53:13.226Z,100147.13
2022-08-19T13:58:35.595Z,100145.06
2022-08-19T14:01:03.010Z,100141.50
2022-08-19T14:03:30.431Z,100144.31
2022-08-19T14:05:56.925Z,100147.88
2022-08-19T14:08:24.318Z,100146.34
2022-08-19T14:13:35.891Z,100149.16
2022-08-19T14:16:03.206Z,100154.75
2022-08-19T14:18:29.693Z,100154.75
2022-08-19T14:20:58.943Z,100143.53
2022-08-19T14:23:26.417Z,100137.13
2022-08-19T14:28:37.529Z,100149.16
2022-08-19T14:31:04.880Z,100153.19
2022-08-19T14:33:32.284Z,100146.78
2022-08-19T14:35:59.744Z,100150.38
2022-08-19T14:38:31.168Z,100152.41
2022-08-19T14:43:52.851Z,100149.59
2022-08-19T14:46:20.228Z,100150.38
2022-08-19T14:48:47.997Z,100152.41
2022-08-19T14:51:19.110Z,100160.06
2022-08-19T14:53:46.488Z,100154.75
2022-08-19T14:58:57.701Z,100156.44
2022-08-19T15:01:25.137Z,100156.44
2022-08-19T15:03:52.555Z,100152.88
2022-08-19T15:06:18.994Z,100153.63
2022-08-19T15:08:46.385Z,100152.88
2022-08-19T15:13:57.835Z,100159.25
2022-08-19T15:16:25.151Z,100156.44
2022-08-19T15:18:51.595Z,100152.88
2022-08-19T15:21:26.938Z,100153.63
2022-08-19T15:23:54.987Z,100144.44
2022-08-19T15:29:17.085Z,100145.22
2022-08-19T15:31:44.530Z,100141.63
2022-08-19T15:34:11.875Z,100140.84
2022-08-19T15:36:39.214Z,100134.44
2022-08-19T15:39:06.572Z,100138.03
2022-08-19T15:44:18.952Z,100127.59
2022-08-19T15:46:46.342Z,100124.78
2022-08-19T15:49:13.594Z,100135.22
2022-08-19T15:51:40.309Z,100141.63
2022-08-19T15:54:06.884Z,100138.81
2022-08-19T15:59:18.252Z,100136.22
2022-08-19T16:01:44.745Z,100135.81
2022-08-19T16:04:14.799Z,100131.97
2022-08-19T16:06:42.837Z,100130.00
2022-08-19T16:09:10.079Z,100137.97
2022-08-19T16:14:30.519Z,100126.44
2022-08-19T16:16:57.037Z,100125.50
2022-08-19T16:19:23.408Z,100117.59
2022-08-19T16:21:49.864Z,100114.31
2022-08-19T16:24:17.244Z,100116.19
2022-08-19T16:29:39.273Z,100121.53
2022-08-19T16:32:06.120Z,100113.31
2022-08-19T16:34:33.820Z,100121.00
2022-08-19T16:37:01.132Z,100116.00
2022-08-19T16:39:27.618Z,100120.38
2022-08-19T16:44:39.995Z,100110.22
2022-08-19T16:47:06.466Z,100111.59
2022-08-19T16:49:52.340Z,100120.97
2022-08-19T16:52:19.397Z,100117.50
2022-08-19T16:54:45.891Z,100124.03
2022-08-19T16:59:56.340Z,100125.44
2022-08-19T17:02:22.815Z,100124.31
2022-08-19T17:04:58.383Z,100128.38
2022-08-19T17:07:25.483Z,100117.13
2022-08-19T17:09:52.906Z,100131.19
2022-08-19T17:15:14.528Z,100134.91
2022-08-19T17:17:41.948Z,100129.75
2022-08-19T17:20:08.422Z,100123.34
2022-08-19T17:22:34.879Z,100121.91
2022-08-19T17:25:02.303Z,100127.84
2022-08-19T17:30:23.470Z,100123.16
2022-08-19T17:32:49.913Z,100137.22
2022-08-19T17:35:20.058Z,100138.44
2022-08-19T17:37:49.573Z,100147.34
2022-08-19T17:40:16.105Z,100149.38
2022-08-19T17:45:44.458Z,100164.66
2022-08-19T17:48:11.893Z,100175.13
2022-08-19T17:50:38.350Z,100165.44
2022-08-19T17:53:04.822Z,100176.34
2022-08-19T17:55:32.132Z,100179.16
2022-08-19T18:00:53.476Z,100184.00
2022-08-19T18:03:22.687Z,100193.66
2022-08-19T18:05:50.035Z,100210.53
2022-08-19T18:08:16.533Z,100204.91
2022-08-19T18:10:43.802Z,100208.53
2022-08-19T18:16:06.320Z,100221.78
2022-08-19T18:18:32.773Z,100222.59
2022-08-19T18:20:59.233Z,100218.97
2022-08-19T18:23:41.237Z,100228.66
2022-08-19T18:26:12.068Z,100216.63
2022-08-19T18:31:32.790Z,100217.09
2022-08-19T18:33:59.222Z,100209.44
2022-08-19T18:36:51.989Z,100210.66
2022-08-19T18:39:13.030Z,100207.84
2022-08-19T18:41:39.486Z,100210.66
2022-08-19T18:47:00.988Z,100199.88
2022-08-19T18:49:28.356Z,100195.06
2022-08-19T18:51:55.659Z,100186.63
2022-08-19T18:54:23.116Z,100186.63
2022-08-19T18:56:49.597Z,100181.00
2022-08-19T19:02:01.896Z,100182.66
2022-08-19T19:04:29.286Z,100183.13
2022-08-19T19:06:56.677Z,100181.56
2022-08-19T19:09:24.079Z,100177.94
2022-08-19T19:11:51.446Z,100183.56
2022-08-19T19:17:02.837Z,100186.88
2022-08-19T19:19:29.302Z,100188.09
2022-08-19T19:21:55.777Z,100193.72
2022-08-19T19:24:23.116Z,100197.75
2022-08-19T19:26:50.538Z,100198.06
2022-08-19T19:32:01.957Z,100200.53
2022-08-19T19:34:30.203Z,100203.69
2022-08-19T19:36:57.790Z,100201.19
2022-08-19T19:39:46.113Z,100202.28
2022-08-19T19:42:13.713Z,100201.69
2022-08-19T19:47:42.122Z,100210.88
2022-08-19T19:50:14.687Z,100214.47
2022-08-19T19:52:42.760Z,100210.59
2022-08-19T19:55:10.174Z,100210.88
2022-08-19T19:57:36.625Z,100207.78
2022-08-19T20:02:58.108Z,100213.22
2022-08-19T20:05:24.564Z,100219.09
2022-08-19T20:07:51.099Z,100224.78
2022-08-19T20:10:18.442Z,100229.59
2022-08-19T20:12:45.802Z,100228.78
2022-08-19T20:17:57.127Z,100222.38
2022-08-19T20:20:23.643Z,100220.03
2022-08-19T20:22:51.033Z,100223.03
2022-08-19T20:25:18.328Z,100229.31
2022-08-19T20:27:49.712Z,100226.63
2022-08-19T20:33:00.956Z,100238.66
2022-08-19T20:35:28.334Z,100242.97
2022-08-19T20:37:58.068Z,100253.88
2022-08-19T20:40:24.912Z,100264.00
2022-08-19T20:42:51.390Z,100259.16
2022-08-19T20:48:12.642Z,100251.63
2022-08-19T20:50:40.087Z,100250.94
2022-08-19T20:53:07.498Z,100260.56
2022-08-19T20:55:34.878Z,100253.28
2022-08-19T20:58:01.326Z,100244.88
2022-08-19T21:03:13.761Z,100238.78
2022-08-19T21:05:40.210Z,100241.69
2022-08-19T21:08:06.676Z,100237.66
2022-08-19T21:10:33.126Z,100248.06
2022-08-19T21:13:00.554Z,100246.00
2022-08-19T21:18:11.819Z,100254.44
2022-08-19T21:20:38.255Z,100258.03
2022-08-19T21:23:05.561Z,100243.41
2022-08-19T21:25:31.996Z,100256.16
2022-08-19T21:27:58.433Z,100249.38
2022-08-19T21:33:08.992Z,100248.13
2022-08-19T21:35:36.351Z,100236.50
2022-08-19T21:38:03.730Z,100240.78
2022-08-19T21:40:30.141Z,100234.13
2022-08-19T21:42:56.617Z,100239.88
2022-08-19T21:48:08.068Z,100246.75
2022-08-19T21:50:34.518Z,100248.09
2022-08-19T21:53:01.002Z,100245.41
2022-08-19T21:55:28.382Z,100229.78
2022-08-19T21:57:55.255Z,100214.44
2022-08-19T22:03:06.866Z,100205.69
2022-08-19T22:05:33.341Z,100218.59
2022-08-19T22:07:59.804Z,100218.69
2022-08-19T22:10:26.336Z,100218.03
2022-08-19T22:12:53.668Z,100212.75
2022-08-19T22:18:15.151Z,100207.94
2022-08-19T22:20:41.660Z,100218.94
2022-08-19T22:23:09.057Z,100213.53
2022-08-19T22:25:36.431Z,100226.22
2022-08-19T22:28:03.768Z,100229.69
2022-08-19T22:33:16.150Z,100237.44
2022-08-19T22:35:43.529Z,100236.88
2022-08-19T22:38:10.916Z,100245.63
2022-08-19T22:40:38.244Z,100247.78
2022-08-19T22:43:04.716Z,100244.84
2022-08-19T22:48:16.003Z,100249.13
2022-08-19T22:50:43.311Z,100259.66
2022-08-19T22:53:09.759Z,100258.66
2022-08-19T22:55:37.164Z,100254.50
2022-08-19T22:58:03.689Z,100261.13
2022-08-19T23:03:25.901Z,100257.88
2022-08-19T23:05:52.614Z,100267.88
2022-08-19T23:08:19.100Z,100269.91
2022-08-19T23:10:46.498Z,100266.97
2022-08-19T23:13:12.962Z,100260.13
2022-08-19T23:18:24.391Z,100283.25
2022-08-19T23:20:51.762Z,100282.00
2022-08-19T23:23:18.220Z,100283.81
2022-08-19T23:25:45.560Z,100299.19
2022-08-19T23:28:12.999Z,100296.84
2022-08-19T23:33:25.377Z,100294.81
2022-08-19T23:35:52.721Z,100303.00
2022-08-19T23:38:20.096Z,100305.59
2022-08-19T23:40:47.444Z,100304.47
2022-08-19T23:43:17.365Z,100297.28
2022-08-19T23:48:35.602Z,100292.25
2022-08-19T23:51:02.985Z,100310.50
2022-08-19T23:53:29.512Z,100313.44
2022-08-19T23:55:56.869Z,100314.91
2022-08-19T23:58:24.157Z,100318.75
